Time;durP1;ratioP1;P1;durP2;ratioP2;P2;SDS_P1;SDS_P2;PMS_P1;PMS_P2;Temp;Humidity;BMP_temperature;BMP_pressure;BME280_temperature;BME280_humidity;BME280_pressure;Samples;Min_cycle;Max_cycle;Signal;HPM_P1;HPM_P2
2022/07/20 00:01:14;0.00;0.00;0.62;0.00;0.00;0.62;6.23;3.90;;;33.20;18.10;;;;;;2225085;62;20616;-69
2022/07/20 00:04:00;0.00;0.00;0.62;0.00;0.00;0.62;5.00;3.97;;;33.20;17.90;;;;;;2226769;62;20390;-72
2022/07/20 00:06:45;0.00;0.00;0.62;0.00;0.00;0.62;4.53;3.47;;;33.10;17.70;;;;;;2225727;62;20590;-70
2022/07/20 00:12:33;0.00;0.00;0.62;0.00;0.00;0.62;5.97;3.50;;;33.00;17.60;;;;;;2226676;62;20410;-68
2022/07/20 00:15:19;0.00;0.00;0.62;0.00;0.00;0.62;6.60;4.10;;;32.90;17.60;;;;;;2225860;62;20357;-69
2022/07/20 00:18:05;0.00;0.00;0.62;0.00;0.00;0.62;8.87;3.70;;;32.90;17.60;;;;;;2223763;62;20774;-65
2022/07/20 00:20:51;0.00;0.00;0.62;0.00;0.00;0.62;4.73;4.00;;;32.80;17.20;;;;;;2226348;62;20419;-68
2022/07/20 00:23:36;0.00;0.00;0.62;0.00;0.00;0.62;4.20;3.10;;;32.70;17.10;;;;;;2226229;62;20753;-67
2022/07/20 00:26:24;0.00;0.00;0.62;0.00;0.00;0.62;6.60;4.00;;;32.60;17.30;;;;;;2226828;62;20373;-69
2022/07/20 00:29:09;0.00;0.00;0.62;0.00;0.00;0.62;9.53;4.47;;;32.50;17.30;;;;;;2225654;62;20382;-68
2022/07/20 00:31:54;0.00;0.00;0.62;0.00;0.00;0.62;8.20;3.70;;;32.40;17.20;;;;;;2226487;62;20393;-67
2022/07/20 00:34:39;0.00;0.00;0.62;0.00;0.00;0.62;5.87;4.13;;;32.40;17.40;;;;;;2226370;62;20412;-68
2022/07/20 00:37:25;0.00;0.00;0.62;0.00;0.00;0.62;4.50;3.50;;;32.30;17.40;;;;;;2225757;62;20366;-68
2022/07/20 00:40:12;0.00;0.00;0.62;0.00;0.00;0.62;8.40;4.37;;;32.20;17.50;;;;;;2226613;62;20374;-68
2022/07/20 00:42:57;0.00;0.00;0.62;0.00;0.00;0.62;5.07;3.53;;;32.20;17.50;;;;;;2226431;62;20437;-67
2022/07/20 00:45:42;0.00;0.00;0.62;0.00;0.00;0.62;6.27;4.30;;;32.10;17.40;;;;;;2226076;62;20446;-67
2022/07/20 00:48:27;0.00;0.00;0.62;0.00;0.00;0.62;5.53;3.90;;;32.00;17.50;;;;;;2226566;62;20385;-68
2022/07/20 00:51:11;0.00;0.00;0.62;0.00;0.00;0.62;5.17;3.50;;;31.90;17.50;;;;;;2225397;62;20864;-65
2022/07/20 00:53:59;0.00;0.00;0.62;0.00;0.00;0.62;5.80;3.57;;;31.80;17.50;;;;;;2226681;62;20374;-67
2022/07/20 00:56:43;0.00;0.00;0.62;0.00;0.00;0.62;5.00;3.67;;;31.70;17.60;;;;;;2226280;62;20430;-68
2022/07/20 00:59:28;0.00;0.00;0.62;0.00;0.00;0.62;7.40;4.53;;;31.60;17.70;;;;;;2225815;62;20371;-68
2022/07/20 01:02:13;0.00;0.00;0.62;0.00;0.00;0.62;6.33;3.63;;;31.60;17.70;;;;;;2226555;62;20385;-68
2022/07/20 01:04:59;0.00;0.00;0.62;0.00;0.00;0.62;9.20;4.70;;;31.40;17.50;;;;;;2226116;62;20442;-67
2022/07/20 01:07:45;0.00;0.00;0.62;0.00;0.00;0.62;5.90;4.33;;;31.40;17.60;;;;;;2225660;62;20406;-68
2022/07/20 01:10:31;0.00;0.00;0.62;0.00;0.00;0.62;9.13;3.97;;;31.30;17.80;;;;;;2226530;62;20740;-67
2022/07/20 01:13:16;0.00;0.00;0.62;0.00;0.00;0.62;7.63;3.70;;;31.20;17.90;;;;;;2225376;62;20604;-69
2022/07/20 01:16:01;0.00;0.00;0.62;0.00;0.00;0.62;5.37;3.70;;;31.20;18.10;;;;;;2226224;62;20775;-70
2022/07/20 01:18:46;0.00;0.00;0.62;0.00;0.00;0.62;5.27;4.50;;;31.10;18.00;;;;;;2226138;62;20378;-70
2022/07/20 01:21:32;0.00;0.00;0.62;0.00;0.00;0.62;5.80;3.80;;;31.10;18.20;;;;;;2225497;62;20559;-68
2022/07/20 01:24:17;0.00;0.00;0.62;0.00;0.00;0.62;5.47;4.40;;;31.10;18.30;;;;;;2226478;62;20430;-69
2022/07/20 01:27:05;0.00;0.00;0.62;0.00;0.00;0.62;5.30;3.63;;;31.10;18.30;;;;;;2226180;62;20630;-66
2022/07/20 01:29:50;0.00;0.00;0.62;0.00;0.00;0.62;4.30;3.53;;;31.00;18.20;;;;;;2225873;62;20509;-67
2022/07/20 01:32:35;0.00;0.00;0.62;0.00;0.00;0.62;4.63;4.17;;;31.00;18.40;;;;;;2226346;62;20398;-70
2022/07/20 01:35:20;0.00;0.00;0.62;0.00;0.00;0.62;4.20;3.80;;;31.00;18.50;;;;;;2225940;62;20564;-69
2022/07/20 01:38:06;0.00;0.00;0.62;0.00;0.00;0.62;7.10;3.20;;;31.00;18.60;;;;;;2226029;62;20476;-67
2022/07/20 01:40:51;0.00;0.00;0.62;0.00;0.00;0.62;5.30;3.73;;;31.00;18.80;;;;;;2225951;62;20730;-68
2022/07/20 01:43:36;0.00;0.00;0.62;0.00;0.00;0.62;3.93;3.10;;;31.00;18.80;;;;;;2225591;62;20815;-70
2022/07/20 01:46:21;0.00;0.00;0.62;0.00;0.00;0.62;5.80;3.37;;;31.10;18.90;;;;;;2226025;62;20365;-67
2022/07/20 01:49:05;0.00;0.00;0.62;0.00;0.00;0.62;4.20;3.00;;;31.10;18.90;;;;;;2226185;62;20438;-69
2022/07/20 01:51:51;0.00;0.00;0.62;0.00;0.00;0.62;4.60;3.87;;;31.10;18.90;;;;;;2225634;62;20447;-69
2022/07/20 01:54:38;0.00;0.00;0.62;0.00;0.00;0.62;4.03;3.63;;;31.20;19.10;;;;;;2226378;62;20608;-67
2022/07/20 01:57:22;0.00;0.00;0.62;0.00;0.00;0.62;4.30;3.83;;;31.20;19.10;;;;;;2225825;62;20366;-69
2022/07/20 02:00:12;0.00;0.00;0.62;0.00;0.00;0.62;5.50;3.10;;;31.20;19.10;;;;;;2226176;62;20481;-70
2022/07/20 02:02:57;0.00;0.00;0.62;0.00;0.00;0.62;4.60;3.70;;;31.20;19.20;;;;;;2226088;62;20609;-68
2022/07/20 02:05:42;0.00;0.00;0.62;0.00;0.00;0.62;4.20;3.60;;;31.30;19.30;;;;;;2225671;62;20577;-69
2022/07/20 02:08:28;0.00;0.00;0.62;0.00;0.00;0.62;4.40;3.53;;;31.30;19.30;;;;;;2226229;62;20442;-69
2022/07/20 02:11:15;0.00;0.00;0.62;0.00;0.00;0.62;4.60;3.73;;;31.30;19.40;;;;;;2226010;62;20807;-68
2022/07/20 02:14:00;0.00;0.00;0.62;0.00;0.00;0.62;4.80;3.87;;;31.30;19.30;;;;;;2225528;62;20740;-70
2022/07/20 02:16:45;0.00;0.00;0.62;0.00;0.00;0.62;5.37;3.30;;;31.40;19.40;;;;;;2226361;62;20374;-69
2022/07/20 02:19:29;0.00;0.00;0.62;0.00;0.00;0.62;3.77;3.40;;;31.40;19.40;;;;;;2225908;62;20419;-71
2022/07/20 02:22:14;0.00;0.00;0.62;0.00;0.00;0.62;3.80;2.93;;;31.40;19.40;;;;;;2225785;62;20411;-70
2022/07/20 02:24:58;0.00;0.00;0.62;0.00;0.00;0.62;7.90;3.70;;;31.40;19.40;;;;;;2226354;62;20807;-68
2022/07/20 02:27:45;0.00;0.00;0.62;0.00;0.00;0.62;4.07;3.43;;;31.50;19.50;;;;;;2225374;62;20366;-69
2022/07/20 02:30:29;0.00;0.00;0.62;0.00;0.00;0.62;3.50;3.20;;;31.50;19.50;;;;;;2226189;62;20373;-69
2022/07/20 02:33:14;0.00;0.00;0.62;0.00;0.00;0.62;4.30;3.17;;;31.50;19.50;;;;;;2226008;62;20369;-70
2022/07/20 02:35:59;0.00;0.00;0.62;0.00;0.00;0.62;3.23;2.73;;;31.50;20.00;;;;;;2225420;62;20369;-70
2022/07/20 02:38:44;0.00;0.00;0.62;0.00;0.00;0.62;4.10;2.60;;;31.60;19.50;;;;;;2226266;62;20582;-68
2022/07/20 02:41:29;0.00;0.00;0.62;0.00;0.00;0.62;4.63;3.43;;;31.60;19.50;;;;;;2225874;62;20438;-69
2022/07/20 02:44:15;0.00;0.00;0.62;0.00;0.00;0.62;4.83;3.50;;;31.60;19.50;;;;;;2228002;62;20397;-67
2022/07/20 02:47:01;0.00;0.00;0.62;0.00;0.00;0.62;4.60;3.33;;;31.60;19.50;;;;;;2226228;62;20378;-68
2022/07/20 02:49:46;0.00;0.00;0.62;0.00;0.00;0.62;4.10;3.50;;;31.60;19.50;;;;;;2225348;62;20395;-67
2022/07/20 02:52:30;0.00;0.00;0.62;0.00;0.00;0.62;4.30;3.90;;;31.60;19.50;;;;;;2228553;62;20405;-69
2022/07/20 02:55:15;0.00;0.00;0.62;0.00;0.00;0.62;6.17;3.60;;;31.60;19.50;;;;;;2225861;62;20454;-68
2022/07/20 02:58:00;0.00;0.00;0.62;0.00;0.00;0.62;4.87;3.77;;;31.60;19.50;;;;;;2225295;62;20601;-68
2022/07/20 03:00:46;0.00;0.00;0.62;0.00;0.00;0.62;4.53;3.27;;;31.60;19.50;;;;;;2226111;62;20366;-69
2022/07/20 03:03:31;0.00;0.00;0.62;0.00;0.00;0.62;4.93;3.70;;;31.60;19.50;;;;;;2225718;62;20393;-68
2022/07/20 03:06:16;0.00;0.00;0.62;0.00;0.00;0.62;4.80;3.53;;;31.60;19.50;;;;;;2225598;62;20370;-68
2022/07/20 03:09:01;0.00;0.00;0.62;0.00;0.00;0.62;6.30;3.70;;;31.50;19.50;;;;;;2226106;62;20602;-69
2022/07/20 03:11:46;0.00;0.00;0.62;0.00;0.00;0.62;5.00;4.00;;;31.60;19.60;;;;;;2224983;62;20781;-67
2022/07/20 03:14:30;0.00;0.00;0.62;0.00;0.00;0.62;5.33;3.37;;;31.50;19.50;;;;;;2226194;62;20366;-68
2022/07/20 03:17:16;0.00;0.00;0.62;0.00;0.00;0.62;3.80;3.33;;;31.50;19.50;;;;;;2225885;62;20370;-68
2022/07/20 03:20:01;0.00;0.00;0.62;0.00;0.00;0.62;4.83;4.00;;;31.50;19.60;;;;;;2225308;62;20479;-69
2022/07/20 03:22:46;0.00;0.00;0.62;0.00;0.00;0.62;5.23;3.77;;;31.40;19.50;;;;;;2226161;62;20386;-70
2022/07/20 03:25:31;0.00;0.00;0.62;0.00;0.00;0.62;8.80;4.30;;;31.40;19.50;;;;;;2225823;62;20350;-67
2022/07/20 03:28:18;0.00;0.00;0.62;0.00;0.00;0.62;7.30;4.37;;;31.40;19.50;;;;;;2225583;62;20407;-70
2022/07/20 03:31:03;0.00;0.00;0.62;0.00;0.00;0.62;6.00;4.30;;;31.30;19.50;;;;;;2225984;62;20415;-67
2022/07/20 03:33:49;0.00;0.00;0.62;0.00;0.00;0.62;9.70;4.73;;;31.30;19.60;;;;;;2225497;62;20394;-67
2022/07/20 03:36:34;0.00;0.00;0.62;0.00;0.00;0.62;4.83;4.20;;;31.20;19.60;;;;;;2226239;62;20374;-68
2022/07/20 03:39:19;0.00;0.00;0.62;0.00;0.00;0.62;5.73;3.90;;;31.20;19.70;;;;;;2226677;62;20399;-68
2022/07/20 03:42:04;0.00;0.00;0.62;0.00;0.00;0.62;6.47;4.70;;;31.20;19.80;;;;;;2225964;62;20398;-66
2022/07/20 03:44:49;0.00;0.00;0.62;0.00;0.00;0.62;6.50;5.07;;;31.10;19.80;;;;;;2226684;62;20451;-70
2022/07/20 03:47:34;0.00;0.00;0.62;0.00;0.00;0.62;6.97;5.03;;;31.10;19.80;;;;;;2226354;62;20419;-67
2022/07/20 03:50:20;0.00;0.00;0.62;0.00;0.00;0.62;7.77;4.83;;;31.00;19.80;;;;;;2225975;62;20401;-68
2022/07/20 03:53:04;0.00;0.00;0.62;0.00;0.00;0.62;5.80;5.07;;;31.00;19.90;;;;;;2226787;62;20396;-69
2022/07/20 03:55:49;0.00;0.00;0.62;0.00;0.00;0.62;9.43;4.80;;;30.90;20.00;;;;;;2228325;62;20702;-68
2022/07/20 03:58:34;0.00;0.00;0.62;0.00;0.00;0.62;7.80;5.10;;;30.80;20.10;;;;;;2226693;62;20373;-69
2022/07/20 04:01:19;0.00;0.00;0.62;0.00;0.00;0.62;8.40;4.57;;;30.80;20.10;;;;;;2226347;62;20409;-66
2022/07/20 04:04:04;0.00;0.00;0.62;0.00;0.00;0.62;6.70;4.90;;;30.70;20.10;;;;;;2225748;62;20389;-69
2022/07/20 04:06:50;0.00;0.00;0.62;0.00;0.00;0.62;5.40;4.70;;;30.70;20.20;;;;;;2226729;62;20482;-69
2022/07/20 04:09:43;0.00;0.00;0.62;0.00;0.00;0.62;5.87;4.20;;;30.60;20.20;;;;;;2226365;62;20733;-67
2022/07/20 04:12:28;0.00;0.00;0.62;0.00;0.00;0.62;5.10;4.10;;;30.60;20.30;;;;;;2225816;62;20627;-69
2022/07/20 04:15:13;0.00;0.00;0.62;0.00;0.00;0.62;7.00;4.53;;;30.50;20.30;;;;;;2226776;62;20361;-69
2022/07/20 04:17:58;0.00;0.00;0.62;0.00;0.00;0.62;6.10;4.13;;;30.50;20.40;;;;;;2226147;62;20699;-68
2022/07/20 04:20:43;0.00;0.00;0.62;0.00;0.00;0.62;10.90;4.70;;;30.40;20.40;;;;;;2226163;62;20389;-69
2022/07/20 04:23:30;0.00;0.00;0.62;0.00;0.00;0.62;6.03;4.00;;;30.40;20.40;;;;;;2226503;62;20398;-68
2022/07/20 04:26:14;0.00;0.00;0.62;0.00;0.00;0.62;4.53;4.00;;;30.40;20.50;;;;;;2226009;62;20455;-68
2022/07/20 04:28:59;0.00;0.00;0.62;0.00;0.00;0.62;7.10;4.37;;;30.40;20.50;;;;;;2226488;62;20450;-66
2022/07/20 04:31:44;0.00;0.00;0.62;0.00;0.00;0.62;4.63;3.67;;;30.40;20.50;;;;;;2226273;62;20420;-66
2022/07/20 04:34:29;0.00;0.00;0.62;0.00;0.00;0.62;7.80;4.23;;;30.40;20.60;;;;;;2225762;62;20366;-68
2022/07/20 04:37:13;0.00;0.00;0.62;0.00;0.00;0.62;5.53;3.90;;;30.40;20.60;;;;;;2226656;62;20381;-68
2022/07/20 04:40:00;0.00;0.00;0.62;0.00;0.00;0.62;4.10;3.43;;;30.40;20.60;;;;;;2226411;62;20402;-67
2022/07/20 04:42:45;0.00;0.00;0.62;0.00;0.00;0.62;6.23;3.90;;;30.40;20.60;;;;;;2226099;62;20393;-68
2022/07/20 04:45:29;0.00;0.00;0.62;0.00;0.00;0.62;4.53;2.93;;;30.40;20.60;;;;;;2226737;62;20790;-69
2022/07/20 04:48:14;0.00;0.00;0.62;0.00;0.00;0.62;6.03;4.00;;;30.40;20.70;;;;;;2225571;62;20415;-67
2022/07/20 04:50:59;0.00;0.00;0.62;0.00;0.00;0.62;4.90;3.70;;;30.40;20.70;;;;;;2226595;62;20385;-66
2022/07/20 04:53:43;0.00;0.00;0.62;0.00;0.00;0.62;9.53;3.70;;;30.40;20.70;;;;;;2226615;62;20369;-66
2022/07/20 04:56:30;0.00;0.00;0.62;0.00;0.00;0.62;4.83;3.97;;;30.40;20.70;;;;;;2225708;62;20362;-66
2022/07/20 04:59:15;0.00;0.00;0.62;0.00;0.00;0.62;4.20;3.80;;;30.50;20.70;;;;;;2226685;62;20484;-68
2022/07/20 05:02:00;0.00;0.00;0.62;0.00;0.00;0.62;9.53;3.43;;;30.50;20.70;;;;;;2226130;62;20497;-70
2022/07/20 05:04:46;0.00;0.00;0.62;0.00;0.00;0.62;4.10;3.40;;;30.50;20.70;;;;;;2226096;62;20397;-69
2022/07/20 05:07:31;0.00;0.00;0.62;0.00;0.00;0.62;4.77;3.60;;;30.50;20.70;;;;;;2226620;62;20443;-68
2022/07/20 05:10:16;0.00;0.00;0.62;0.00;0.00;0.62;3.93;3.53;;;30.50;20.60;;;;;;2225327;62;20369;-69
2022/07/20 05:13:02;0.00;0.00;0.62;0.00;0.00;0.62;5.07;3.87;;;30.50;20.60;;;;;;2226579;62;20405;-68
2022/07/20 05:15:46;0.00;0.00;0.62;0.00;0.00;0.62;9.63;4.33;;;30.50;20.60;;;;;;2226211;62;20369;-70
2022/07/20 05:18:31;0.00;0.00;0.62;0.00;0.00;0.62;4.00;3.60;;;30.50;20.60;;;;;;2225895;62;20388;-69
2022/07/20 05:21:16;0.00;0.00;0.62;0.00;0.00;0.62;4.00;3.40;;;30.50;20.60;;;;;;2226361;62;20392;-69
2022/07/20 05:24:01;0.00;0.00;0.62;0.00;0.00;0.62;6.00;3.93;;;30.50;20.60;;;;;;2226055;62;20672;-69
2022/07/20 05:26:45;0.00;0.00;0.62;0.00;0.00;0.62;6.10;3.67;;;30.50;20.60;;;;;;2226000;62;20373;-69
2022/07/20 05:29:31;0.00;0.00;0.62;0.00;0.00;0.62;5.63;3.90;;;30.50;20.60;;;;;;2226337;62;20760;-69
2022/07/20 05:32:16;0.00;0.00;0.62;0.00;0.00;0.62;6.30;3.83;;;30.50;20.70;;;;;;2225532;62;20413;-70
2022/07/20 05:35:01;0.00;0.00;0.62;0.00;0.00;0.62;5.33;3.97;;;30.50;20.70;;;;;;2226580;62;20369;-68
2022/07/20 05:37:46;0.00;0.00;0.62;0.00;0.00;0.62;5.13;4.37;;;30.50;20.70;;;;;;2226038;62;20382;-67
2022/07/20 05:40:31;0.00;0.00;0.62;0.00;0.00;0.62;7.20;4.27;;;30.50;20.80;;;;;;2225532;62;20419;-69
2022/07/20 05:43:16;0.00;0.00;0.62;0.00;0.00;0.62;5.10;3.77;;;30.60;20.90;;;;;;2226371;62;20629;-68
2022/07/20 05:46:02;0.00;0.00;0.62;0.00;0.00;0.62;4.00;3.37;;;30.60;20.90;;;;;;2226112;62;20454;-69
2022/07/20 05:48:47;0.00;0.00;0.62;0.00;0.00;0.62;5.57;3.30;;;30.60;20.90;;;;;;2225597;62;20648;-69
2022/07/20 05:51:34;0.00;0.00;0.62;0.00;0.00;0.62;14.10;3.40;;;30.60;20.80;;;;;;2226341;62;20394;-66
2022/07/20 05:54:18;0.00;0.00;0.62;0.00;0.00;0.62;7.27;4.30;;;30.60;20.90;;;;;;2226057;62;20362;-67
2022/07/20 05:57:03;0.00;0.00;0.62;0.00;0.00;0.62;4.00;3.37;;;30.70;20.90;;;;;;2226400;62;20389;-67
2022/07/20 05:59:49;0.00;0.00;0.62;0.00;0.00;0.62;4.27;3.50;;;30.70;20.80;;;;;;2226048;62;20397;-69
2022/07/20 06:02:36;0.00;0.00;0.62;0.00;0.00;0.62;5.53;3.97;;;30.70;20.80;;;;;;2225557;62;20394;-70
2022/07/20 06:05:20;0.00;0.00;0.62;0.00;0.00;0.62;5.77;3.77;;;30.70;20.80;;;;;;2226411;62;20702;-71
2022/07/20 06:08:05;0.00;0.00;0.62;0.00;0.00;0.62;5.13;3.90;;;30.80;20.90;;;;;;2225587;62;20397;-68
2022/07/20 06:10:50;0.00;0.00;0.62;0.00;0.00;0.62;3.70;3.30;;;30.80;20.90;;;;;;2225390;62;20584;-67
2022/07/20 06:13:35;0.00;0.00;0.62;0.00;0.00;0.62;4.20;3.53;;;30.80;20.90;;;;;;2226374;62;20392;-68
2022/07/20 06:16:20;0.00;0.00;0.62;0.00;0.00;0.62;3.43;3.13;;;30.80;20.90;;;;;;2225948;62;20378;-68
2022/07/20 06:19:06;0.00;0.00;0.62;0.00;0.00;0.62;6.07;3.77;;;30.90;20.90;;;;;;2226073;62;20403;-70
2022/07/20 06:21:51;0.00;0.00;0.62;0.00;0.00;0.62;5.10;3.77;;;30.90;21.10;;;;;;2226171;62;20398;-71
2022/07/20 06:24:35;0.00;0.00;0.62;0.00;0.00;0.62;5.47;4.03;;;30.90;21.10;;;;;;2225459;62;20398;-68
2022/07/20 06:27:20;0.00;0.00;0.62;0.00;0.00;0.62;7.40;3.90;;;30.90;21.20;;;;;;2226415;62;20734;-69
2022/07/20 06:30:08;0.00;0.00;0.62;0.00;0.00;0.62;6.13;4.10;;;31.00;21.20;;;;;;2226036;62;20774;-70
2022/07/20 06:32:53;0.00;0.00;0.62;0.00;0.00;0.62;5.80;4.10;;;31.00;21.30;;;;;;2227689;62;20894;-70
2022/07/20 06:35:40;0.00;0.00;0.62;0.00;0.00;0.62;5.30;3.40;;;31.00;21.30;;;;;;2226306;62;20619;-74
2022/07/20 06:38:24;0.00;0.00;0.62;0.00;0.00;0.62;4.80;3.10;;;31.00;21.20;;;;;;2225934;62;20733;-71
2022/07/20 06:41:09;0.00;0.00;0.62;0.00;0.00;0.62;7.10;4.43;;;31.10;21.40;;;;;;2225882;62;20393;-67
2022/07/20 06:43:54;0.00;0.00;0.62;0.00;0.00;0.62;5.67;4.37;;;31.10;21.40;;;;;;2226222;62;20435;-70
2022/07/20 06:46:38;0.00;0.00;0.62;0.00;0.00;0.62;4.70;4.13;;;31.10;21.40;;;;;;2225391;62;20618;-68
2022/07/20 06:49:24;0.00;0.00;0.62;0.00;0.00;0.62;4.50;4.10;;;31.10;21.40;;;;;;2226137;62;20423;-68
2022/07/20 06:52:10;0.00;0.00;0.62;0.00;0.00;0.62;4.10;3.70;;;31.20;21.40;;;;;;2225901;62;20742;-72
2022/07/20 06:54:55;0.00;0.00;0.62;0.00;0.00;0.62;8.90;4.27;;;31.20;21.30;;;;;;2225454;62;20374;-69
2022/07/20 06:57:40;0.00;0.00;0.62;0.00;0.00;0.62;6.27;3.80;;;31.20;21.30;;;;;;2225395;62;20465;-69
2022/07/20 07:00:25;0.00;0.00;0.62;0.00;0.00;0.62;4.67;4.27;;;31.30;21.40;;;;;;2223996;62;20419;-68
2022/07/20 07:03:10;0.00;0.00;0.62;0.00;0.00;0.62;5.30;3.50;;;31.30;21.40;;;;;;2222586;62;20421;-68
2022/07/20 07:05:54;0.00;0.00;0.62;0.00;0.00;0.62;4.63;4.17;;;31.30;21.30;;;;;;2221945;62;20375;-66
2022/07/20 07:08:40;0.00;0.00;0.62;0.00;0.00;0.62;4.37;3.97;;;31.30;21.30;;;;;;2221162;62;20370;-71
2022/07/20 07:11:26;0.00;0.00;0.62;0.00;0.00;0.62;4.53;3.77;;;31.40;21.30;;;;;;2221482;62;20455;-70
2022/07/20 07:14:11;0.00;0.00;0.62;0.00;0.00;0.62;9.60;4.27;;;31.40;21.20;;;;;;2222181;62;20363;-71
2022/07/20 07:16:56;0.00;0.00;0.62;0.00;0.00;0.62;4.00;3.57;;;31.50;21.20;;;;;;2221503;62;20374;-69
2022/07/20 07:19:41;0.00;0.00;0.62;0.00;0.00;0.62;5.93;3.87;;;31.50;21.20;;;;;;2221916;62;20367;-72
2022/07/20 07:22:32;0.00;0.00;0.62;0.00;0.00;0.62;4.30;3.90;;;31.50;21.30;;;;;;2221805;62;20780;-70
2022/07/20 07:25:18;0.00;0.00;0.62;0.00;0.00;0.62;4.87;4.13;;;31.60;21.40;;;;;;2221093;62;20394;-70
2022/07/20 07:28:04;0.00;0.00;0.62;0.00;0.00;0.62;4.73;3.80;;;31.60;21.30;;;;;;2222268;62;20730;-70
2022/07/20 07:30:52;0.00;0.00;0.62;0.00;0.00;0.62;5.90;3.90;;;31.60;21.30;;;;;;2220691;62;20579;-70
2022/07/20 07:33:37;0.00;0.00;0.62;0.00;0.00;0.62;4.10;3.70;;;31.60;21.40;;;;;;2225911;62;20405;-66
2022/07/20 07:36:22;0.00;0.00;0.62;0.00;0.00;0.62;4.97;4.40;;;31.70;21.40;;;;;;2225913;62;20399;-65
2022/07/20 07:39:07;0.00;0.00;0.62;0.00;0.00;0.62;4.50;3.43;;;31.70;21.30;;;;;;2225326;62;20433;-66
2022/07/20 07:41:53;0.00;0.00;0.62;0.00;0.00;0.62;5.10;4.17;;;31.70;21.20;;;;;;2226074;62;20766;-70
2022/07/20 07:44:38;0.00;0.00;0.62;0.00;0.00;0.62;4.60;3.90;;;31.80;21.30;;;;;;2225797;62;20655;-70
2022/07/20 07:47:23;0.00;0.00;0.62;0.00;0.00;0.62;5.30;4.10;;;31.80;21.40;;;;;;2224921;62;20398;-66
2022/07/20 07:50:09;0.00;0.00;0.62;0.00;0.00;0.62;4.20;3.80;;;31.80;21.40;;;;;;2225667;62;20594;-69
2022/07/20 07:52:53;0.00;0.00;0.62;0.00;0.00;0.62;4.67;4.20;;;31.80;21.40;;;;;;2225229;62;20611;-67
2022/07/20 07:55:39;0.00;0.00;0.62;0.00;0.00;0.62;4.80;3.43;;;31.90;21.40;;;;;;2225850;62;20398;-67
2022/07/20 07:58:25;0.00;0.00;0.62;0.00;0.00;0.62;4.23;3.10;;;31.90;21.40;;;;;;2225716;62;20425;-69
2022/07/20 08:01:10;0.00;0.00;0.62;0.00;0.00;0.62;5.97;4.13;;;32.00;21.60;;;;;;2224941;62;20394;-69
2022/07/20 08:03:55;0.00;0.00;0.62;0.00;0.00;0.62;5.10;3.70;;;32.00;21.70;;;;;;2226168;62;20444;-65
2022/07/20 08:06:39;0.00;0.00;0.62;0.00;0.00;0.62;4.60;4.20;;;32.00;21.70;;;;;;2225788;62;20400;-67
2022/07/20 08:09:24;0.00;0.00;0.62;0.00;0.00;0.62;4.30;3.40;;;32.10;21.70;;;;;;2225326;62;20393;-67
2022/07/20 08:12:09;0.00;0.00;0.62;0.00;0.00;0.62;4.63;3.63;;;32.10;21.70;;;;;;2225927;62;20394;-69
2022/07/20 08:14:55;0.00;0.00;0.62;0.00;0.00;0.62;4.23;3.83;;;32.10;21.60;;;;;;2225433;62;20366;-68
2022/07/20 08:17:43;0.00;0.00;0.62;0.00;0.00;0.62;4.13;3.73;;;32.20;21.70;;;;;;2225990;62;20383;-69
2022/07/20 08:20:28;0.00;0.00;0.62;0.00;0.00;0.62;6.30;3.30;;;32.20;21.70;;;;;;2225442;62;20395;-69
2022/07/20 08:23:13;0.00;0.00;0.62;0.00;0.00;0.62;6.30;3.93;;;32.30;21.80;;;;;;2225381;62;20395;-67
2022/07/20 08:25:58;0.00;0.00;0.62;0.00;0.00;0.62;7.00;4.40;;;32.30;21.80;;;;;;2226759;62;20430;-66
2022/07/20 08:28:43;0.00;0.00;0.62;0.00;0.00;0.62;4.17;3.77;;;32.30;21.80;;;;;;2226217;62;20370;-71
2022/07/20 08:31:29;0.00;0.00;0.62;0.00;0.00;0.62;4.43;3.77;;;32.30;21.70;;;;;;2225530;62;20390;-73
2022/07/20 08:34:14;0.00;0.00;0.62;0.00;0.00;0.62;7.40;3.60;;;32.40;21.80;;;;;;2226654;62;20603;-71
2022/07/20 08:36:58;0.00;0.00;0.62;0.00;0.00;0.62;4.50;3.47;;;32.40;21.80;;;;;;2225891;62;20422;-66
2022/07/20 08:39:43;0.00;0.00;0.62;0.00;0.00;0.62;5.10;4.13;;;32.50;21.80;;;;;;2625361;46;20396;-67
2022/07/20 08:42:28;0.00;0.00;0.62;0.00;0.00;0.62;4.53;3.50;;;32.50;21.90;;;;;;2222242;62;20750;-69
2022/07/20 08:45:12;0.00;0.00;0.62;0.00;0.00;0.62;5.37;3.87;;;32.50;21.90;;;;;;2221827;62;20455;-64
2022/07/20 08:48:03;0.00;0.00;0.62;0.00;0.00;0.62;6.07;3.80;;;32.50;22.00;;;;;;2222803;62;20381;-64
2022/07/20 08:50:48;0.00;0.00;0.62;0.00;0.00;0.62;7.33;4.50;;;32.60;22.00;;;;;;2222265;62;20379;-64
2022/07/20 08:53:33;0.00;0.00;0.62;0.00;0.00;0.62;4.43;4.03;;;32.60;21.90;;;;;;2221969;62;20593;-65
2022/07/20 08:56:18;0.00;0.00;0.62;0.00;0.00;0.62;4.53;3.70;;;32.60;21.90;;;;;;2222724;62;20439;-65
2022/07/20 08:59:03;0.00;0.00;0.62;0.00;0.00;0.62;4.87;3.50;;;32.70;21.90;;;;;;2222394;62;20632;-65
2022/07/20 09:01:58;0.00;0.00;0.62;0.00;0.00;0.62;4.40;3.77;;;32.70;21.90;;;;;;2222103;62;20394;-66
2022/07/20 09:04:54;0.00;0.00;0.62;0.00;0.00;0.62;4.17;3.60;;;32.70;21.80;;;;;;2222306;62;20394;-66
2022/07/20 09:07:41;0.00;0.00;0.62;0.00;0.00;0.62;3.80;3.50;;;32.80;21.80;;;;;;2221988;62;20365;-66
2022/07/20 09:10:28;0.00;0.00;0.62;0.00;0.00;0.62;3.83;3.53;;;32.80;21.80;;;;;;2222401;62;20363;-67
2022/07/20 09:13:17;0.00;0.00;0.62;0.00;0.00;0.62;4.20;3.50;;;32.80;21.80;;;;;;2222389;62;20586;-67
2022/07/20 09:16:02;0.00;0.00;0.62;0.00;0.00;0.62;4.80;4.07;;;32.90;21.90;;;;;;2222064;62;20761;-67
2022/07/20 09:18:47;0.00;0.00;0.62;0.00;0.00;0.62;4.40;4.00;;;32.90;21.90;;;;;;2222821;62;20375;-66
2022/07/20 09:21:35;0.00;0.00;0.62;0.00;0.00;0.62;4.97;4.00;;;33.00;22.10;;;;;;2222049;62;20506;-67
2022/07/20 09:24:22;0.00;0.00;0.62;0.00;0.00;0.62;7.70;4.23;;;33.00;21.90;;;;;;2222229;62;20653;-68
2022/07/20 09:27:07;0.00;0.00;0.62;0.00;0.00;0.62;5.70;4.37;;;33.00;22.00;;;;;;2222489;62;20367;-68
2022/07/20 09:30:05;0.00;0.00;0.62;0.00;0.00;0.62;7.03;4.20;;;33.10;22.20;;;;;;2221880;62;20355;-69
2022/07/20 09:32:54;0.00;0.00;0.62;0.00;0.00;0.62;4.13;3.70;;;33.10;22.30;;;;;;2222296;62;20418;-63
2022/07/20 09:35:39;0.00;0.00;0.62;0.00;0.00;0.62;4.20;3.80;;;33.10;22.20;;;;;;2222416;62;20359;-64
2022/07/20 09:38:34;0.00;0.00;0.62;0.00;0.00;0.62;4.13;3.80;;;33.20;22.10;;;;;;2223473;62;20410;-64
2022/07/20 09:41:25;0.00;0.00;0.62;0.00;0.00;0.62;4.63;3.93;;;33.20;21.90;;;;;;2226483;62;20457;-64
2022/07/20 09:44:20;0.00;0.00;0.62;0.00;0.00;0.62;6.30;3.90;;;33.20;21.90;;;;;;2225665;62;20393;-64
2022/07/20 09:47:12;0.00;0.00;0.62;0.00;0.00;0.62;5.83;3.97;;;33.30;21.80;;;;;;2226578;62;20374;-64
2022/07/20 09:49:57;0.00;0.00;0.62;0.00;0.00;0.62;6.60;4.17;;;33.30;21.70;;;;;;2226184;62;20451;-64
2022/07/20 09:52:42;0.00;0.00;0.62;0.00;0.00;0.62;4.70;4.30;;;33.40;21.70;;;;;;2225716;62;20394;-64
2022/07/20 09:55:29;0.00;0.00;0.62;0.00;0.00;0.62;4.13;3.77;;;33.40;21.60;;;;;;2226493;62;20362;-64
2022/07/20 09:58:15;0.00;0.00;0.62;0.00;0.00;0.62;4.90;4.20;;;33.40;21.50;;;;;;2226137;62;20431;-64
2022/07/20 10:01:01;0.00;0.00;0.62;0.00;0.00;0.62;5.30;4.13;;;33.40;21.50;;;;;;2225939;62;20370;-64
2022/07/20 10:03:48;0.00;0.00;0.62;0.00;0.00;0.62;4.63;3.50;;;33.50;21.50;;;;;;2226428;62;20438;-64
2022/07/20 10:06:34;0.00;0.00;0.62;0.00;0.00;0.62;5.00;4.07;;;33.60;21.60;;;;;;2225769;62;20369;-64
2022/07/20 10:09:20;0.00;0.00;0.62;0.00;0.00;0.62;7.40;4.40;;;33.60;21.50;;;;;;2226376;62;20443;-64
2022/07/20 10:12:07;0.00;0.00;0.62;0.00;0.00;0.62;5.50;4.13;;;33.60;21.30;;;;;;2226033;62;20394;-64
2022/07/20 10:14:54;0.00;0.00;0.62;0.00;0.00;0.62;7.73;6.40;;;33.60;21.40;;;;;;2225518;62;20387;-65
2022/07/20 10:17:42;0.00;0.00;0.62;0.00;0.00;0.62;9.53;5.80;;;33.70;21.30;;;;;;2226432;62;20374;-64
2022/07/20 10:20:34;0.00;0.00;0.62;0.00;0.00;0.62;6.77;5.23;;;33.70;21.10;;;;;;2225898;62;20370;-64
2022/07/20 10:23:32;0.00;0.00;0.62;0.00;0.00;0.62;6.37;4.83;;;33.80;21.20;;;;;;2226066;62;20388;-64
2022/07/20 10:26:25;0.00;0.00;0.62;0.00;0.00;0.62;6.60;5.17;;;33.80;20.90;;;;;;2226122;62;20363;-63
2022/07/20 10:29:31;0.00;0.00;0.62;0.00;0.00;0.62;5.13;4.60;;;33.80;21.00;;;;;;2225158;62;20374;-63
2022/07/20 10:32:25;0.00;0.00;0.62;0.00;0.00;0.62;4.70;3.87;;;33.90;21.00;;;;;;2226293;62;20542;-63
2022/07/20 10:35:27;0.00;0.00;0.62;0.00;0.00;0.62;5.70;4.17;;;33.90;20.90;;;;;;2225996;62;20362;-65
2022/07/20 10:38:14;0.00;0.00;0.62;0.00;0.00;0.62;4.80;4.07;;;33.90;20.70;;;;;;2226338;62;20450;-65
2022/07/20 10:44:28;0.00;0.00;0.62;0.00;0.00;0.62;4.00;3.53;;;34.00;20.90;;;;;;2225401;62;20390;-64
2022/07/20 10:47:43;0.00;0.00;0.62;0.00;0.00;0.62;4.17;3.77;;;34.10;20.80;;;;;;2226297;62;20365;-64
2022/07/20 10:50:33;0.00;0.00;0.62;0.00;0.00;0.62;4.93;4.13;;;34.10;20.70;;;;;;2225614;62;20386;-64
2022/07/20 10:53:33;0.00;0.00;0.62;0.00;0.00;0.62;7.10;4.20;;;34.10;20.50;;;;;;2226403;62;20787;-64
2022/07/20 10:56:29;0.00;0.00;0.62;0.00;0.00;0.62;6.40;4.83;;;34.20;20.60;;;;;;2225885;62;20366;-65
2022/07/20 10:59:13;0.00;0.00;0.62;0.00;0.00;0.62;4.90;4.17;;;34.20;20.50;;;;;;2225594;62;20362;-64
2022/07/20 11:02:00;0.00;0.00;0.62;0.00;0.00;0.62;4.87;4.37;;;34.30;20.30;;;;;;2226091;62;20430;-65